createdAt,value
2023-03-31T00:00:14.861Z,1.17
2023-03-31T00:02:42.440Z,1.18
2023-03-31T00:05:10.837Z,1.17
2023-03-31T00:07:41.106Z,1.19
2023-03-31T00:12:45.456Z,1.19
2023-03-31T00:15:12.838Z,1.15
2023-03-31T00:17:40.201Z,1.09
2023-03-31T00:20:12.615Z,0.98
2023-03-31T00:22:42.575Z,0.95
2023-03-31T00:25:11.343Z,0.90
2023-03-31T00:27:42.375Z,0.91
2023-03-31T00:30:12.606Z,0.85
2023-03-31T00:32:40.146Z,0.88
2023-03-31T00:35:09.009Z,0.76
2023-03-31T00:37:36.334Z,0.67
2023-03-31T00:40:10.115Z,0.61
2023-03-31T00:42:41.229Z,0.55
2023-03-31T00:45:23.842Z,0.51
2023-03-31T00:47:55.346Z,0.41
2023-03-31T00:50:27.189Z,0.38
2023-03-31T00:52:58.103Z,0.31
2023-03-31T00:55:32.611Z,0.28
2023-03-31T00:58:02.176Z,0.27
2023-03-31T01:00:31.094Z,0.28
2023-03-31T01:03:02.376Z,0.21
2023-03-31T01:05:36.176Z,0.26
2023-03-31T01:08:06.018Z,0.24
2023-03-31T01:10:41.694Z,0.24
2023-03-31T01:13:10.965Z,0.23
2023-03-31T01:15:40.472Z,0.25
2023-03-31T01:18:11.043Z,0.24
2023-03-31T01:20:57.672Z,0.20
2023-03-31T01:23:53.072Z,0.15
2023-03-31T01:26:50.082Z,0.11
2023-03-31T01:29:48.119Z,0.08
2023-03-31T01:32:50.910Z,0.10
2023-03-31T01:35:38.000Z,0.12
2023-03-31T01:38:31.527Z,0.14
2023-03-31T01:41:17.146Z,0.12
2023-03-31T01:43:54.623Z,0.10
2023-03-31T01:46:29.191Z,0.05
2023-03-31T01:49:09.528Z,-0.02
2023-03-31T01:51:44.875Z,0.02
2023-03-31T01:54:19.719Z,0.05
2023-03-31T01:56:52.686Z,0.12
2023-03-31T01:59:27.208Z,0.08
2023-03-31T02:01:59.615Z,0.13
2023-03-31T02:04:31.748Z,0.14
2023-03-31T02:07:04.105Z,0.18
2023-03-31T02:09:35.002Z,0.19
2023-03-31T02:12:08.770Z,0.15
2023-03-31T02:14:40.045Z,0.13
2023-03-31T02:17:14.458Z,0.08
2023-03-31T02:19:46.558Z,0.09
2023-03-31T02:22:16.566Z,0.01
2023-03-31T02:24:46.296Z,0.12
2023-03-31T02:27:21.229Z,0.13
2023-03-31T02:29:49.117Z,0.12
2023-03-31T02:32:22.597Z,0.14
2023-03-31T02:34:50.179Z,0.16
2023-03-31T02:37:17.700Z,0.14
2023-03-31T02:39:49.028Z,0.14
2023-03-31T02:42:18.413Z,0.11
2023-03-31T02:44:46.060Z,0.10
2023-03-31T02:47:16.430Z,0.09
2023-03-31T02:49:48.787Z,0.06
2023-03-31T02:52:45.624Z,0.11
2023-03-31T02:55:28.248Z,0.14
2023-03-31T02:58:26.960Z,0.14
2023-03-31T03:01:11.630Z,0.13
2023-03-31T03:03:50.449Z,0.18
2023-03-31T03:06:28.038Z,0.16
2023-03-31T03:09:17.259Z,0.14
2023-03-31T03:11:52.152Z,0.16
2023-03-31T03:14:32.326Z,0.13
2023-03-31T03:17:04.095Z,0.08
2023-03-31T03:19:31.551Z,0.14
2023-03-31T03:21:59.116Z,0.14
2023-03-31T03:24:29.819Z,0.15
2023-03-31T03:26:57.885Z,0.21
2023-03-31T03:29:27.371Z,0.22
2023-03-31T03:31:54.880Z,0.19
2023-03-31T03:34:22.235Z,0.25
2023-03-31T03:36:49.607Z,0.27
2023-03-31T03:39:16.956Z,0.30
2023-03-31T03:41:44.245Z,0.32
2023-03-31T03:44:11.626Z,0.28
2023-03-31T03:46:40.722Z,0.31
2023-03-31T03:49:08.012Z,0.31
2023-03-31T03:51:35.825Z,0.24
2023-03-31T03:54:03.492Z,0.13
2023-03-31T03:56:31.322Z,0.10
2023-03-31T03:58:58.683Z,0.11
2023-03-31T04:01:26.209Z,0.07
2023-03-31T04:03:55.005Z,0.12
2023-03-31T04:06:22.597Z,0.00
2023-03-31T04:08:49.840Z,0.09
2023-03-31T04:11:19.372Z,0.06
2023-03-31T04:13:47.511Z,0.04
2023-03-31T04:16:16.941Z,-0.02
2023-03-31T04:18:48.901Z,0.10
2023-03-31T04:21:23.186Z,0.12
2023-03-31T04:23:58.773Z,0.18
2023-03-31T04:26:31.115Z,0.23
2023-03-31T04:29:00.413Z,0.28
2023-03-31T04:31:31.035Z,0.29
2023-03-31T04:34:02.670Z,0.33
2023-03-31T04:36:32.020Z,0.37
2023-03-31T04:39:00.040Z,0.36
2023-03-31T04:41:30.093Z,0.36
2023-03-31T04:43:57.495Z,0.37
2023-03-31T04:46:25.728Z,0.37
2023-03-31T04:48:53.111Z,0.40
2023-03-31T04:51:20.550Z,0.41
2023-03-31T04:53:49.713Z,0.35
2023-03-31T04:56:17.184Z,0.40
2023-03-31T04:58:44.838Z,0.41
2023-03-31T05:01:13.938Z,0.47
2023-03-31T05:03:41.566Z,0.54
2023-03-31T05:06:09.181Z,0.58
2023-03-31T05:08:37.409Z,0.52
2023-03-31T05:11:06.912Z,0.39
2023-03-31T05:13:34.170Z,0.47
2023-03-31T05:16:07.055Z,0.49
2023-03-31T05:18:34.436Z,0.49
2023-03-31T05:21:13.219Z,0.54
2023-03-31T05:23:40.738Z,0.54
2023-03-31T05:26:09.790Z,0.49
2023-03-31T05:28:38.025Z,0.50
2023-03-31T05:31:06.958Z,0.53
2023-03-31T05:33:35.071Z,0.56
2023-03-31T05:36:02.472Z,0.56
2023-03-31T05:38:31.639Z,0.66
2023-03-31T05:40:59.186Z,0.79
2023-03-31T05:43:27.979Z,0.88
2023-03-31T05:45:55.425Z,0.97
2023-03-31T05:48:22.791Z,1.05
2023-03-31T05:50:50.717Z,1.13
2023-03-31T05:53:18.016Z,1.19
2023-03-31T05:55:45.832Z,1.20
2023-03-31T05:58:13.000Z,1.23
2023-03-31T06:00:41.834Z,1.28
2023-03-31T06:03:09.184Z,1.32
2023-03-31T06:05:36.515Z,1.37
2023-03-31T06:08:04.414Z,1.42
2023-03-31T06:10:31.812Z,1.51
2023-03-31T06:12:59.082Z,1.66
2023-03-31T06:15:26.505Z,1.71
2023-03-31T06:17:55.393Z,1.71
2023-03-31T06:20:28.242Z,1.75
2023-03-31T06:22:56.168Z,1.72
2023-03-31T06:25:23.683Z,1.71
2023-03-31T06:27:52.030Z,1.74
2023-03-31T06:30:19.422Z,1.76
2023-03-31T06:32:47.076Z,1.83
2023-03-31T06:35:16.060Z,1.87
2023-03-31T06:37:43.302Z,1.92
2023-03-31T06:40:11.438Z,1.93
2023-03-31T06:42:39.611Z,2.04
2023-03-31T06:45:07.919Z,2.12
2023-03-31T06:47:35.262Z,2.15
2023-03-31T06:50:02.819Z,2.23
2023-03-31T06:52:31.899Z,2.27
2023-03-31T06:55:00.675Z,2.32
2023-03-31T06:57:28.613Z,2.31
2023-03-31T06:59:55.999Z,2.28
2023-03-31T07:02:23.429Z,2.25
2023-03-31T07:04:50.780Z,2.20
2023-03-31T07:07:18.497Z,2.21
2023-03-31T07:09:47.264Z,2.23
2023-03-31T07:12:14.651Z,2.26
2023-03-31T07:14:42.946Z,2.32
2023-03-31T07:17:11.789Z,2.39
2023-03-31T07:19:42.325Z,2.43
2023-03-31T07:22:09.782Z,2.45
2023-03-31T07:24:37.136Z,2.48
2023-03-31T07:27:05.916Z,2.47
2023-03-31T07:29:33.297Z,2.48
2023-03-31T07:32:00.640Z,2.44
2023-03-31T07:34:28.038Z,2.44
2023-03-31T07:36:55.987Z,2.51
2023-03-31T07:39:23.357Z,2.59
2023-03-31T07:41:50.775Z,2.67
2023-03-31T07:44:20.505Z,2.64
2023-03-31T07:46:47.776Z,2.63
2023-03-31T07:49:16.249Z,2.59
2023-03-31T07:51:43.560Z,2.65
2023-03-31T07:54:10.828Z,2.68
2023-03-31T07:56:38.427Z,2.71
2023-03-31T07:59:05.836Z,2.73
2023-03-31T08:01:35.007Z,2.79
2023-03-31T08:04:02.580Z,2.85
2023-03-31T08:06:30.563Z,2.90
2023-03-31T08:08:58.371Z,2.94
2023-03-31T08:11:26.193Z,2.96
2023-03-31T08:13:54.136Z,2.99
2023-03-31T08:16:21.665Z,3.00
2023-03-31T08:18:50.416Z,3.11
2023-03-31T08:21:17.966Z,3.19
2023-03-31T08:23:45.384Z,3.21
2023-03-31T08:26:17.349Z,3.15
2023-03-31T08:28:46.086Z,3.23
2023-03-31T08:31:16.535Z,3.28
2023-03-31T08:33:44.386Z,3.30
2023-03-31T08:36:13.751Z,3.29
2023-03-31T08:38:43.059Z,3.33
2023-03-31T08:41:23.295Z,3.26
2023-03-31T08:43:51.013Z,3.19
2023-03-31T08:46:19.697Z,3.19
2023-03-31T08:48:50.307Z,3.07
2023-03-31T08:51:22.879Z,3.29
2023-03-31T08:53:55.760Z,3.25
2023-03-31T08:56:24.565Z,3.17
2023-03-31T08:58:52.807Z,3.11
2023-03-31T09:01:37.972Z,3.07
2023-03-31T09:04:26.075Z,3.11
2023-03-31T09:07:02.733Z,3.11
2023-03-31T09:09:44.447Z,3.08
2023-03-31T09:12:20.608Z,3.01
2023-03-31T09:14:55.025Z,2.99
2023-03-31T09:17:26.711Z,2.99
2023-03-31T09:19:59.064Z,2.99
2023-03-31T09:22:31.733Z,2.99
2023-03-31T09:25:01.476Z,2.98
2023-03-31T09:27:32.631Z,2.96
2023-03-31T09:30:05.821Z,2.95
2023-03-31T09:32:33.966Z,2.94
2023-03-31T09:35:14.473Z,2.93
2023-03-31T09:37:43.104Z,3.00
2023-03-31T09:40:16.655Z,3.01
2023-03-31T09:42:44.907Z,3.10
2023-03-31T09:45:16.186Z,3.13
2023-03-31T09:47:45.978Z,3.22
2023-03-31T09:50:14.548Z,3.24
2023-03-31T09:52:46.422Z,3.25
2023-03-31T09:55:32.126Z,3.32
2023-03-31T09:58:07.457Z,3.28
2023-03-31T10:00:35.692Z,3.27
2023-03-31T10:03:07.878Z,3.33
2023-03-31T10:05:37.924Z,3.36
2023-03-31T10:08:26.548Z,3.38
2023-03-31T10:10:56.278Z,3.44
2023-03-31T10:13:25.596Z,3.47
2023-03-31T10:15:54.795Z,3.35
2023-03-31T10:18:33.420Z,3.43
2023-03-31T10:21:03.091Z,3.44
2023-03-31T10:23:34.135Z,3.47
2023-03-31T10:26:03.937Z,3.51
2023-03-31T10:28:34.793Z,3.43
2023-03-31T10:31:03.656Z,3.54
2023-03-31T10:33:35.000Z,3.51
2023-03-31T10:36:08.801Z,3.50
2023-03-31T10:38:42.809Z,3.44
2023-03-31T10:41:10.895Z,3.50
2023-03-31T10:43:41.831Z,3.56
2023-03-31T10:46:10.234Z,3.55
2023-03-31T10:48:40.016Z,3.57
2023-03-31T10:51:18.558Z,3.45
2023-03-31T10:53:48.813Z,3.48
2023-03-31T10:56:32.208Z,3.45
2023-03-31T10:59:21.468Z,3.33
2023-03-31T11:02:01.924Z,3.42
2023-03-31T11:05:01.017Z,3.47
2023-03-31T11:07:50.418Z,3.33
2023-03-31T11:10:35.082Z,3.36
2023-03-31T11:13:13.712Z,3.40
2023-03-31T11:15:46.152Z,3.39
2023-03-31T11:18:32.038Z,3.43
2023-03-31T11:21:10.714Z,3.46
2023-03-31T11:23:43.137Z,3.41
2023-03-31T11:26:20.204Z,3.53
2023-03-31T11:29:04.086Z,3.47
2023-03-31T11:31:38.746Z,3.51
2023-03-31T11:34:20.551Z,3.47
2023-03-31T11:37:13.396Z,3.36
2023-03-31T11:39:57.390Z,3.38
2023-03-31T11:42:29.172Z,3.38
2023-03-31T11:45:03.926Z,3.42
2023-03-31T11:47:37.439Z,3.42
2023-03-31T11:50:11.523Z,3.38
2023-03-31T11:52:43.671Z,3.38
2023-03-31T11:55:16.889Z,3.42
2023-03-31T11:57:50.876Z,3.25
2023-03-31T12:00:21.392Z,3.39
2023-03-31T12:02:53.073Z,3.38
2023-03-31T12:05:22.466Z,3.37
2023-03-31T12:07:57.437Z,3.50
2023-03-31T12:10:35.668Z,3.45
2023-03-31T12:13:16.294Z,3.38
2023-03-31T12:15:51.569Z,3.33
2023-03-31T12:18:23.502Z,3.23
2023-03-31T12:20:54.131Z,3.17
2023-03-31T12:23:25.138Z,3.12
2023-03-31T12:26:02.225Z,3.18
2023-03-31T12:28:33.857Z,3.16
2023-03-31T12:31:03.434Z,3.17
2023-03-31T12:33:33.302Z,3.14
2023-03-31T12:36:23.727Z,3.14
2023-03-31T12:38:59.168Z,3.20
2023-03-31T12:41:37.996Z,3.22
2023-03-31T12:44:36.300Z,3.25
2023-03-31T12:47:33.807Z,3.25
2023-03-31T12:50:27.550Z,3.26
2023-03-31T12:53:05.804Z,3.28
2023-03-31T12:55:37.589Z,3.30
2023-03-31T12:58:42.401Z,3.30
2023-03-31T13:01:16.687Z,3.26
2023-03-31T13:03:50.801Z,3.23
2023-03-31T13:07:00.015Z,3.25
2023-03-31T13:09:47.638Z,3.19
2023-03-31T13:12:18.122Z,3.15
2023-03-31T13:14:47.705Z,3.07
2023-03-31T13:17:24.234Z,3.00
2023-03-31T13:19:52.594Z,2.88
2023-03-31T13:22:34.872Z,2.80
2023-03-31T13:25:33.412Z,2.82
2023-03-31T13:28:11.715Z,2.76
2023-03-31T13:30:51.676Z,2.69
2023-03-31T13:33:28.756Z,2.82
2023-03-31T13:36:13.835Z,2.83
2023-03-31T13:38:50.680Z,2.92
2023-03-31T13:41:46.408Z,2.99
2023-03-31T13:44:33.790Z,2.80
2023-03-31T13:47:28.319Z,3.00
2023-03-31T13:50:13.211Z,2.98
2023-03-31T13:52:47.549Z,2.90
2023-03-31T13:55:52.988Z,2.97
2023-03-31T13:58:43.318Z,2.99
2023-03-31T14:01:43.528Z,2.97
2023-03-31T14:04:40.532Z,2.95
2023-03-31T14:07:13.560Z,3.01
2023-03-31T14:09:49.540Z,3.01
2023-03-31T14:12:22.091Z,3.11
2023-03-31T14:14:53.649Z,3.17
2023-03-31T14:17:22.024Z,3.13
2023-03-31T14:20:21.383Z,3.09
2023-03-31T14:22:57.207Z,3.09
2023-03-31T14:25:37.853Z,2.99
2023-03-31T14:28:18.714Z,2.94
2023-03-31T14:30:54.788Z,2.95
2023-03-31T14:33:39.801Z,2.94
2023-03-31T14:36:16.030Z,2.99
2023-03-31T14:38:45.743Z,2.98
2023-03-31T14:41:20.317Z,3.00
2023-03-31T14:43:51.098Z,2.99
2023-03-31T14:46:21.886Z,2.96
2023-03-31T14:48:51.328Z,2.93
2023-03-31T14:51:25.105Z,2.83
2023-03-31T14:53:58.016Z,2.81
2023-03-31T14:56:33.915Z,2.76
2023-03-31T14:59:02.746Z,2.74
2023-03-31T15:01:35.887Z,2.69
2023-03-31T15:04:08.255Z,2.68
2023-03-31T15:06:35.865Z,2.73
2023-03-31T15:09:04.659Z,2.68
2023-03-31T15:11:32.761Z,2.60
2023-03-31T15:14:04.893Z,2.61
2023-03-31T15:16:38.101Z,2.63
2023-03-31T15:19:12.747Z,2.61
2023-03-31T15:21:40.593Z,2.61
2023-03-31T15:24:12.617Z,2.58
2023-03-31T15:26:45.491Z,2.53
2023-03-31T15:29:19.253Z,2.49
2023-03-31T15:31:47.059Z,2.56
2023-03-31T15:34:23.583Z,2.56
2023-03-31T15:36:53.549Z,2.56
2023-03-31T15:39:23.567Z,2.59
2023-03-31T15:41:55.165Z,2.59
2023-03-31T15:44:36.771Z,2.65
2023-03-31T15:47:13.105Z,2.60
2023-03-31T15:49:50.264Z,2.75
2023-03-31T15:52:22.708Z,2.77
2023-03-31T15:54:52.322Z,2.73
2023-03-31T15:57:19.908Z,2.69
2023-03-31T15:59:55.492Z,2.68
2023-03-31T16:02:26.635Z,2.56
2023-03-31T16:04:57.945Z,2.54
2023-03-31T16:07:28.815Z,2.51
2023-03-31T16:10:00.932Z,2.50
2023-03-31T16:12:31.953Z,2.53
2023-03-31T16:15:03.158Z,2.52
2023-03-31T16:17:34.716Z,2.54
2023-03-31T16:20:07.581Z,2.57
2023-03-31T16:22:39.829Z,2.52
2023-03-31T16:25:15.555Z,2.45
2023-03-31T16:27:46.913Z,2.40
2023-03-31T16:30:16.797Z,2.37
2023-03-31T16:33:00.972Z,2.29
2023-03-31T16:35:34.226Z,2.24
2023-03-31T16:38:04.336Z,2.22
2023-03-31T16:40:36.609Z,2.18
2023-03-31T16:43:12.123Z,2.13
2023-03-31T16:45:39.737Z,2.17
2023-03-31T16:48:15.635Z,2.10
2023-03-31T16:50:44.290Z,2.10
2023-03-31T16:53:13.133Z,2.08
2023-03-31T16:55:42.434Z,2.03
2023-03-31T16:58:09.894Z,1.96
2023-03-31T17:00:37.520Z,1.92
2023-03-31T17:03:07.812Z,1.92
2023-03-31T17:05:38.575Z,1.98
2023-03-31T17:08:06.704Z,1.95
2023-03-31T17:10:34.099Z,2.00
2023-03-31T17:13:03.087Z,2.03
2023-03-31T17:15:30.669Z,2.02
2023-03-31T17:17:59.426Z,2.03
2023-03-31T17:20:26.941Z,2.10
2023-03-31T17:22:54.461Z,2.16
2023-03-31T17:25:22.159Z,2.21
2023-03-31T17:27:49.511Z,2.24
2023-03-31T17:30:18.259Z,2.23
2023-03-31T17:32:45.734Z,2.29
2023-03-31T17:35:20.546Z,2.31
2023-03-31T17:37:50.543Z,2.25
2023-03-31T17:40:18.162Z,2.20
2023-03-31T17:42:47.294Z,2.22
2023-03-31T17:45:14.852Z,2.21
2023-03-31T17:47:45.233Z,2.27
2023-03-31T17:50:15.013Z,2.28
2023-03-31T17:52:42.527Z,2.24
2023-03-31T17:55:10.520Z,2.22
2023-03-31T17:57:40.450Z,2.19
2023-03-31T18:00:10.224Z,2.17
2023-03-31T18:02:37.991Z,2.18
2023-03-31T18:05:08.517Z,2.16
2023-03-31T18:07:36.726Z,2.15
2023-03-31T18:10:05.483Z,2.13
2023-03-31T18:12:33.367Z,2.03
2023-03-31T18:15:01.816Z,1.96
2023-03-31T18:17:31.536Z,1.93
2023-03-31T18:19:59.444Z,1.94
2023-03-31T18:22:28.928Z,1.92
2023-03-31T18:24:56.668Z,1.91
2023-03-31T18:27:25.178Z,1.90
2023-03-31T18:29:52.573Z,1.87
2023-03-31T18:32:20.380Z,1.89
2023-03-31T18:34:48.499Z,1.85
2023-03-31T18:37:15.751Z,1.86
2023-03-31T18:39:44.562Z,1.88
2023-03-31T18:42:12.241Z,1.84
2023-03-31T18:44:39.939Z,1.83
2023-03-31T18:47:07.406Z,1.80
2023-03-31T18:49:34.910Z,1.71
2023-03-31T18:52:04.504Z,1.71
2023-03-31T18:54:32.368Z,1.73
2023-03-31T18:57:03.340Z,1.71
2023-03-31T18:59:30.590Z,1.68
2023-03-31T19:01:57.984Z,1.66
2023-03-31T19:04:25.590Z,1.63
2023-03-31T19:06:53.499Z,1.59
2023-03-31T19:09:22.961Z,1.57
2023-03-31T19:11:50.160Z,1.60
2023-03-31T19:14:19.010Z,1.62
2023-03-31T19:16:46.867Z,1.65
2023-03-31T19:19:14.146Z,1.66
2023-03-31T19:21:42.827Z,1.68
2023-03-31T19:24:10.242Z,1.67
2023-03-31T19:26:37.606Z,1.70
2023-03-31T19:29:05.543Z,1.64
2023-03-31T19:31:41.448Z,1.63
2023-03-31T19:34:11.723Z,1.61
2023-03-31T19:36:39.050Z,1.57
2023-03-31T19:39:07.436Z,1.48
2023-03-31T19:41:35.191Z,1.51
2023-03-31T19:44:02.928Z,1.47
2023-03-31T19:46:30.895Z,1.43
2023-03-31T19:49:00.112Z,1.40
2023-03-31T19:51:27.768Z,1.39
2023-03-31T19:53:55.217Z,1.38
2023-03-31T19:56:25.344Z,1.33
2023-03-31T19:58:52.611Z,1.33
2023-03-31T20:01:22.876Z,1.30
2023-03-31T20:03:53.531Z,1.29
2023-03-31T20:06:24.544Z,1.17
2023-03-31T20:08:53.089Z,1.23
2023-03-31T20:11:22.397Z,1.23
2023-03-31T20:13:49.791Z,1.21
2023-03-31T20:16:19.211Z,1.20
2023-03-31T20:18:51.317Z,1.20
2023-03-31T20:21:20.866Z,1.18
2023-03-31T20:23:49.629Z,1.16
2023-03-31T20:26:19.349Z,1.06
2023-03-31T20:28:47.728Z,1.08
2023-03-31T20:31:17.854Z,0.93
2023-03-31T20:33:46.316Z,0.92
2023-03-31T20:36:15.703Z,0.82
2023-03-31T20:38:46.450Z,0.82
2023-03-31T20:41:15.860Z,0.75
2023-03-31T20:43:43.188Z,0.68
2023-03-31T20:46:11.037Z,0.64
2023-03-31T20:48:40.709Z,0.60
2023-03-31T20:51:09.752Z,0.57
2023-03-31T20:53:47.010Z,0.54
2023-03-31T20:56:17.590Z,0.57
2023-03-31T20:58:45.280Z,0.53
2023-03-31T21:01:14.206Z,0.52
2023-03-31T21:03:42.461Z,0.51
2023-03-31T21:06:12.154Z,0.42
2023-03-31T21:08:40.898Z,0.53
2023-03-31T21:11:08.546Z,0.49
2023-03-31T21:13:37.418Z,0.50
2023-03-31T21:16:05.791Z,0.47
2023-03-31T21:18:34.978Z,0.50
2023-03-31T21:21:04.299Z,0.46
2023-03-31T21:23:31.922Z,0.44
2023-03-31T21:26:01.207Z,0.41
2023-03-31T21:28:30.349Z,0.41
2023-03-31T21:31:03.266Z,0.35
2023-03-31T21:33:31.790Z,0.40
2023-03-31T21:35:59.591Z,0.38
2023-03-31T21:38:30.553Z,0.38
2023-03-31T21:40:57.803Z,0.46
2023-03-31T21:43:26.119Z,0.43
2023-03-31T21:45:59.615Z,0.51
2023-03-31T21:48:27.145Z,0.50
2023-03-31T21:50:55.276Z,0.53
2023-03-31T21:53:23.282Z,0.52
2023-03-31T21:55:52.837Z,0.54
2023-03-31T21:58:20.051Z,0.56
2023-03-31T22:00:47.707Z,0.57
2023-03-31T22:03:26.995Z,0.56
2023-03-31T22:05:55.586Z,0.58
2023-03-31T22:08:23.093Z,0.60
2023-03-31T22:10:52.229Z,0.58
2023-03-31T22:13:20.630Z,0.61
2023-03-31T22:15:48.777Z,0.63
2023-03-31T22:18:18.066Z,0.61
2023-03-31T22:20:46.358Z,0.62
2023-03-31T22:23:13.752Z,0.63
2023-03-31T22:25:41.388Z,0.63
2023-03-31T22:28:09.252Z,0.62
2023-03-31T22:30:37.109Z,0.60
2023-03-31T22:33:04.603Z,0.63
2023-03-31T22:35:33.671Z,0.62
2023-03-31T22:38:01.719Z,0.63
2023-03-31T22:40:30.231Z,0.65
2023-03-31T22:42:58.549Z,0.67
2023-03-31T22:45:25.933Z,0.67
2023-03-31T22:47:53.230Z,0.65
2023-03-31T22:50:21.214Z,0.68
2023-03-31T22:52:50.200Z,0.69
2023-03-31T22:55:18.037Z,0.69
2023-03-31T22:57:46.043Z,0.69
2023-03-31T23:00:14.454Z,0.67
2023-03-31T23:02:42.352Z,0.68
2023-03-31T23:05:10.153Z,0.69
2023-03-31T23:07:38.044Z,0.70
2023-03-31T23:10:08.271Z,0.73
2023-03-31T23:12:35.533Z,0.75
2023-03-31T23:15:03.100Z,0.80
2023-03-31T23:17:31.508Z,0.80
2023-03-31T23:19:58.946Z,0.79
2023-03-31T23:22:26.616Z,0.81
2023-03-31T23:24:54.070Z,0.83
2023-03-31T23:27:23.560Z,0.84
2023-03-31T23:29:51.314Z,0.83
2023-03-31T23:32:18.624Z,0.83
2023-03-31T23:34:45.973Z,0.82
2023-03-31T23:37:14.373Z,0.86
2023-03-31T23:39:41.989Z,0.86
2023-03-31T23:42:10.702Z,0.90
2023-03-31T23:44:39.617Z,0.90
2023-03-31T23:47:07.020Z,0.92
2023-03-31T23:49:34.373Z,0.94
2023-03-31T23:52:01.564Z,0.94
2023-03-31T23:54:29.273Z,0.95
2023-03-31T23:56:57.138Z,0.97
2023-03-31T23:59:24.466Z,0.93
